sensor_id;sensor_type;location;lat;lon;timestamp;P1;durP1;ratioP1;P2;durP2;ratioP2
18200;SDS011;9226;47.858;9.594;2023-04-15T00:02:17;6.60;;;2.90;;
18200;SDS011;9226;47.858;9.594;2023-04-15T00:04:46;4.70;;;2.60;;
18200;SDS011;9226;47.858;9.594;2023-04-15T00:07:12;7.00;;;2.60;;
18200;SDS011;9226;47.858;9.594;2023-04-15T00:09:38;5.63;;;2.47;;
18200;SDS011;9226;47.858;9.594;2023-04-15T00:12:05;4.63;;;2.33;;
18200;SDS011;9226;47.858;9.594;2023-04-15T00:14:30;5.70;;;2.50;;
18200;SDS011;9226;47.858;9.594;2023-04-15T00:16:56;4.43;;;2.30;;
18200;SDS011;9226;47.858;9.594;2023-04-15T00:19:22;7.87;;;2.73;;
18200;SDS011;9226;47.858;9.594;2023-04-15T00:21:48;4.77;;;2.30;;
18200;SDS011;9226;47.858;9.594;2023-04-15T00:24:14;8.07;;;2.90;;
18200;SDS011;9226;47.858;9.594;2023-04-15T00:26:39;6.47;;;2.70;;
18200;SDS011;9226;47.858;9.594;2023-04-15T00:29:05;6.83;;;2.43;;
18200;SDS011;9226;47.858;9.594;2023-04-15T00:31:30;7.23;;;2.37;;
18200;SDS011;9226;47.858;9.594;2023-04-15T00:33:56;14.50;;;2.60;;
18200;SDS011;9226;47.858;9.594;2023-04-15T00:36:21;4.70;;;2.37;;
18200;SDS011;9226;47.858;9.594;2023-04-15T00:38:47;5.60;;;2.43;;
18200;SDS011;9226;47.858;9.594;2023-04-15T00:41:13;5.20;;;2.40;;
18200;SDS011;9226;47.858;9.594;2023-04-15T00:43:38;6.77;;;2.63;;
18200;SDS011;9226;47.858;9.594;2023-04-15T00:46:04;3.33;;;2.50;;
18200;SDS011;9226;47.858;9.594;2023-04-15T00:48:30;4.80;;;2.17;;
18200;SDS011;9226;47.858;9.594;2023-04-15T00:50:56;8.50;;;2.60;;
18200;SDS011;9226;47.858;9.594;2023-04-15T00:53:22;6.03;;;2.53;;
18200;SDS011;9226;47.858;9.594;2023-04-15T00:55:47;4.63;;;2.70;;
18200;SDS011;9226;47.858;9.594;2023-04-15T00:58:13;9.77;;;2.83;;
18200;SDS011;9226;47.858;9.594;2023-04-15T01:00:39;9.40;;;2.50;;
18200;SDS011;9226;47.858;9.594;2023-04-15T01:03:05;13.13;;;2.83;;
18200;SDS011;9226;47.858;9.594;2023-04-15T01:05:30;6.87;;;2.53;;
18200;SDS011;9226;47.858;9.594;2023-04-15T01:07:56;6.60;;;2.60;;
18200;SDS011;9226;47.858;9.594;2023-04-15T01:10:22;6.70;;;2.67;;
18200;SDS011;9226;47.858;9.594;2023-04-15T01:12:47;4.93;;;2.40;;
18200;SDS011;9226;47.858;9.594;2023-04-15T01:15:13;7.37;;;2.70;;
18200;SDS011;9226;47.858;9.594;2023-04-15T01:17:40;8.57;;;2.60;;
18200;SDS011;9226;47.858;9.594;2023-04-15T01:20:06;5.57;;;2.60;;
18200;SDS011;9226;47.858;9.594;2023-04-15T01:22:34;5.07;;;2.50;;
18200;SDS011;9226;47.858;9.594;2023-04-15T01:25:00;4.10;;;2.70;;
18200;SDS011;9226;47.858;9.594;2023-04-15T01:27:41;7.80;;;2.40;;
18200;SDS011;9226;47.858;9.594;2023-04-15T01:30:08;9.17;;;2.53;;
18200;SDS011;9226;47.858;9.594;2023-04-15T01:32:34;9.10;;;2.73;;
18200;SDS011;9226;47.858;9.594;2023-04-15T01:35:00;5.27;;;2.47;;
18200;SDS011;9226;47.858;9.594;2023-04-15T01:37:26;7.13;;;2.73;;
18200;SDS011;9226;47.858;9.594;2023-04-15T01:39:51;5.00;;;2.67;;
18200;SDS011;9226;47.858;9.594;2023-04-15T01:42:17;5.47;;;2.53;;
18200;SDS011;9226;47.858;9.594;2023-04-15T01:44:42;8.47;;;2.60;;
18200;SDS011;9226;47.858;9.594;2023-04-15T01:47:07;6.33;;;2.63;;
18200;SDS011;9226;47.858;9.594;2023-04-15T01:49:33;6.60;;;2.27;;
18200;SDS011;9226;47.858;9.594;2023-04-15T01:51:58;3.83;;;2.27;;
18200;SDS011;9226;47.858;9.594;2023-04-15T01:54:24;10.27;;;2.77;;
18200;SDS011;9226;47.858;9.594;2023-04-15T01:56:51;7.13;;;2.40;;
18200;SDS011;9226;47.858;9.594;2023-04-15T01:59:16;6.07;;;2.20;;
18200;SDS011;9226;47.858;9.594;2023-04-15T02:01:42;5.33;;;2.20;;
18200;SDS011;9226;47.858;9.594;2023-04-15T02:04:09;6.33;;;2.20;;
18200;SDS011;9226;47.858;9.594;2023-04-15T02:06:40;5.47;;;2.20;;
18200;SDS011;9226;47.858;9.594;2023-04-15T02:09:09;4.87;;;2.17;;
18200;SDS011;9226;47.858;9.594;2023-04-15T02:11:34;5.63;;;2.53;;
18200;SDS011;9226;47.858;9.594;2023-04-15T02:14:01;6.17;;;2.90;;
18200;SDS011;9226;47.858;9.594;2023-04-15T02:16:29;4.83;;;2.57;;
18200;SDS011;9226;47.858;9.594;2023-04-15T02:18:56;5.03;;;2.10;;
18200;SDS011;9226;47.858;9.594;2023-04-15T02:21:22;4.17;;;2.40;;
18200;SDS011;9226;47.858;9.594;2023-04-15T02:23:47;6.97;;;2.20;;
18200;SDS011;9226;47.858;9.594;2023-04-15T02:26:13;7.13;;;2.20;;
18200;SDS011;9226;47.858;9.594;2023-04-15T02:28:38;3.63;;;2.10;;
18200;SDS011;9226;47.858;9.594;2023-04-15T02:31:04;6.27;;;2.50;;
18200;SDS011;9226;47.858;9.594;2023-04-15T02:33:30;5.80;;;1.83;;
18200;SDS011;9226;47.858;9.594;2023-04-15T02:35:56;3.80;;;1.90;;
18200;SDS011;9226;47.858;9.594;2023-04-15T02:38:22;3.90;;;2.10;;
18200;SDS011;9226;47.858;9.594;2023-04-15T02:40:47;3.53;;;1.90;;
18200;SDS011;9226;47.858;9.594;2023-04-15T02:43:14;8.47;;;2.43;;
18200;SDS011;9226;47.858;9.594;2023-04-15T02:45:41;6.87;;;2.43;;
18200;SDS011;9226;47.858;9.594;2023-04-15T02:48:07;5.73;;;1.77;;
18200;SDS011;9226;47.858;9.594;2023-04-15T02:50:33;5.97;;;2.40;;
18200;SDS011;9226;47.858;9.594;2023-04-15T02:52:58;8.43;;;2.30;;
18200;SDS011;9226;47.858;9.594;2023-04-15T02:55:25;4.80;;;2.30;;
18200;SDS011;9226;47.858;9.594;2023-04-15T02:57:50;4.80;;;2.17;;
18200;SDS011;9226;47.858;9.594;2023-04-15T03:00:16;4.13;;;2.37;;
18200;SDS011;9226;47.858;9.594;2023-04-15T03:02:41;5.77;;;2.53;;
18200;SDS011;9226;47.858;9.594;2023-04-15T03:05:10;5.03;;;2.47;;
18200;SDS011;9226;47.858;9.594;2023-04-15T03:07:36;3.97;;;2.23;;
18200;SDS011;9226;47.858;9.594;2023-04-15T03:10:02;4.93;;;2.00;;
18200;SDS011;9226;47.858;9.594;2023-04-15T03:12:27;3.37;;;1.87;;
18200;SDS011;9226;47.858;9.594;2023-04-15T03:14:54;3.03;;;1.90;;
18200;SDS011;9226;47.858;9.594;2023-04-15T03:17:20;3.80;;;2.00;;
18200;SDS011;9226;47.858;9.594;2023-04-15T03:19:45;4.20;;;2.00;;
18200;SDS011;9226;47.858;9.594;2023-04-15T03:22:11;5.83;;;2.00;;
18200;SDS011;9226;47.858;9.594;2023-04-15T03:24:36;5.33;;;1.80;;
18200;SDS011;9226;47.858;9.594;2023-04-15T03:27:01;8.30;;;2.00;;
18200;SDS011;9226;47.858;9.594;2023-04-15T03:29:27;3.07;;;1.87;;
18200;SDS011;9226;47.858;9.594;2023-04-15T03:31:52;5.13;;;2.17;;
18200;SDS011;9226;47.858;9.594;2023-04-15T03:34:18;5.43;;;1.73;;
18200;SDS011;9226;47.858;9.594;2023-04-15T03:36:43;5.73;;;2.20;;
18200;SDS011;9226;47.858;9.594;2023-04-15T03:39:09;4.00;;;2.20;;
18200;SDS011;9226;47.858;9.594;2023-04-15T03:41:34;4.53;;;1.80;;
18200;SDS011;9226;47.858;9.594;2023-04-15T03:44:00;3.53;;;1.90;;
18200;SDS011;9226;47.858;9.594;2023-04-15T03:46:25;4.23;;;2.03;;
18200;SDS011;9226;47.858;9.594;2023-04-15T03:48:50;4.10;;;2.00;;
18200;SDS011;9226;47.858;9.594;2023-04-15T03:51:16;4.17;;;2.20;;
18200;SDS011;9226;47.858;9.594;2023-04-15T03:53:41;5.47;;;2.20;;
18200;SDS011;9226;47.858;9.594;2023-04-15T03:56:07;5.23;;;2.10;;
18200;SDS011;9226;47.858;9.594;2023-04-15T03:58:32;4.17;;;2.00;;
18200;SDS011;9226;47.858;9.594;2023-04-15T04:00:57;9.23;;;2.23;;
18200;SDS011;9226;47.858;9.594;2023-04-15T04:03:23;4.83;;;2.00;;
18200;SDS011;9226;47.858;9.594;2023-04-15T04:05:48;5.23;;;2.03;;
18200;SDS011;9226;47.858;9.594;2023-04-15T04:08:15;4.53;;;1.87;;
18200;SDS011;9226;47.858;9.594;2023-04-15T04:10:41;4.13;;;1.90;;
18200;SDS011;9226;47.858;9.594;2023-04-15T04:13:06;7.13;;;1.90;;
18200;SDS011;9226;47.858;9.594;2023-04-15T04:15:32;6.47;;;1.80;;
18200;SDS011;9226;47.858;9.594;2023-04-15T04:17:57;2.93;;;1.53;;
18200;SDS011;9226;47.858;9.594;2023-04-15T04:20:22;3.47;;;1.70;;
18200;SDS011;9226;47.858;9.594;2023-04-15T04:22:48;3.17;;;1.93;;
18200;SDS011;9226;47.858;9.594;2023-04-15T04:25:14;5.57;;;1.70;;
18200;SDS011;9226;47.858;9.594;2023-04-15T04:27:39;3.53;;;1.60;;
18200;SDS011;9226;47.858;9.594;2023-04-15T04:30:05;3.73;;;1.50;;
18200;SDS011;9226;47.858;9.594;2023-04-15T04:32:31;3.63;;;1.77;;
18200;SDS011;9226;47.858;9.594;2023-04-15T04:34:56;3.17;;;1.70;;
18200;SDS011;9226;47.858;9.594;2023-04-15T04:37:22;2.77;;;1.57;;
18200;SDS011;9226;47.858;9.594;2023-04-15T04:39:48;6.00;;;1.70;;
18200;SDS011;9226;47.858;9.594;2023-04-15T04:42:14;3.97;;;1.80;;
18200;SDS011;9226;47.858;9.594;2023-04-15T04:44:39;2.73;;;1.50;;
18200;SDS011;9226;47.858;9.594;2023-04-15T04:47:04;4.10;;;1.60;;
18200;SDS011;9226;47.858;9.594;2023-04-15T04:49:31;2.73;;;1.30;;
18200;SDS011;9226;47.858;9.594;2023-04-15T04:51:57;3.00;;;1.80;;
18200;SDS011;9226;47.858;9.594;2023-04-15T04:54:22;2.70;;;1.80;;
18200;SDS011;9226;47.858;9.594;2023-04-15T04:56:48;8.60;;;2.37;;
18200;SDS011;9226;47.858;9.594;2023-04-15T04:59:13;5.00;;;1.90;;
18200;SDS011;9226;47.858;9.594;2023-04-15T05:01:38;3.33;;;1.40;;
18200;SDS011;9226;47.858;9.594;2023-04-15T05:04:05;3.97;;;1.80;;
18200;SDS011;9226;47.858;9.594;2023-04-15T05:06:31;5.53;;;2.17;;
18200;SDS011;9226;47.858;9.594;2023-04-15T05:08:57;3.57;;;1.77;;
18200;SDS011;9226;47.858;9.594;2023-04-15T05:11:22;5.13;;;1.90;;
18200;SDS011;9226;47.858;9.594;2023-04-15T05:13:48;1.87;;;1.50;;
18200;SDS011;9226;47.858;9.594;2023-04-15T05:16:13;3.53;;;1.20;;
18200;SDS011;9226;47.858;9.594;2023-04-15T05:18:39;3.70;;;1.57;;
18200;SDS011;9226;47.858;9.594;2023-04-15T05:21:04;3.50;;;1.50;;
18200;SDS011;9226;47.858;9.594;2023-04-15T05:23:30;3.63;;;1.70;;
18200;SDS011;9226;47.858;9.594;2023-04-15T05:25:56;6.53;;;2.10;;
18200;SDS011;9226;47.858;9.594;2023-04-15T05:28:21;3.50;;;2.20;;
18200;SDS011;9226;47.858;9.594;2023-04-15T05:30:47;11.20;;;3.07;;
18200;SDS011;9226;47.858;9.594;2023-04-15T05:33:12;16.43;;;2.40;;
18200;SDS011;9226;47.858;9.594;2023-04-15T05:35:37;6.20;;;2.40;;
18200;SDS011;9226;47.858;9.594;2023-04-15T05:38:03;5.90;;;2.07;;
18200;SDS011;9226;47.858;9.594;2023-04-15T05:40:29;4.63;;;2.00;;
18200;SDS011;9226;47.858;9.594;2023-04-15T05:42:55;6.43;;;2.30;;
18200;SDS011;9226;47.858;9.594;2023-04-15T05:45:20;4.77;;;1.70;;
18200;SDS011;9226;47.858;9.594;2023-04-15T05:47:46;3.43;;;1.60;;
18200;SDS011;9226;47.858;9.594;2023-04-15T05:50:11;6.67;;;1.50;;
18200;SDS011;9226;47.858;9.594;2023-04-15T05:52:37;2.90;;;1.50;;
18200;SDS011;9226;47.858;9.594;2023-04-15T05:55:02;3.20;;;1.63;;
18200;SDS011;9226;47.858;9.594;2023-04-15T05:57:28;2.53;;;1.43;;
18200;SDS011;9226;47.858;9.594;2023-04-15T05:59:53;1.77;;;1.27;;
18200;SDS011;9226;47.858;9.594;2023-04-15T06:02:19;3.20;;;1.40;;
18200;SDS011;9226;47.858;9.594;2023-04-15T06:04:45;3.43;;;1.67;;
18200;SDS011;9226;47.858;9.594;2023-04-15T06:07:10;2.53;;;1.40;;
18200;SDS011;9226;47.858;9.594;2023-04-15T06:09:36;4.03;;;2.40;;
18200;SDS011;9226;47.858;9.594;2023-04-15T06:12:01;3.20;;;1.93;;
18200;SDS011;9226;47.858;9.594;2023-04-15T06:14:27;5.80;;;3.00;;
18200;SDS011;9226;47.858;9.594;2023-04-15T06:16:52;4.47;;;2.30;;
18200;SDS011;9226;47.858;9.594;2023-04-15T06:19:18;2.83;;;2.00;;
18200;SDS011;9226;47.858;9.594;2023-04-15T06:21:44;4.63;;;2.20;;
18200;SDS011;9226;47.858;9.594;2023-04-15T06:24:10;7.47;;;3.57;;
18200;SDS011;9226;47.858;9.594;2023-04-15T06:26:36;8.60;;;4.90;;
18200;SDS011;9226;47.858;9.594;2023-04-15T06:29:01;6.67;;;3.40;;
18200;SDS011;9226;47.858;9.594;2023-04-15T06:31:27;4.37;;;2.30;;
18200;SDS011;9226;47.858;9.594;2023-04-15T06:33:52;6.10;;;2.67;;
18200;SDS011;9226;47.858;9.594;2023-04-15T06:36:17;7.00;;;2.40;;
18200;SDS011;9226;47.858;9.594;2023-04-15T06:38:43;7.40;;;2.40;;
18200;SDS011;9226;47.858;9.594;2023-04-15T06:41:08;5.67;;;2.27;;
18200;SDS011;9226;47.858;9.594;2023-04-15T06:43:34;6.87;;;2.50;;
18200;SDS011;9226;47.858;9.594;2023-04-15T06:45:59;6.83;;;2.80;;
18200;SDS011;9226;47.858;9.594;2023-04-15T06:48:25;4.67;;;2.20;;
18200;SDS011;9226;47.858;9.594;2023-04-15T06:50:51;4.50;;;2.00;;
18200;SDS011;9226;47.858;9.594;2023-04-15T06:53:17;6.30;;;1.53;;
18200;SDS011;9226;47.858;9.594;2023-04-15T06:55:43;4.70;;;1.87;;
18200;SDS011;9226;47.858;9.594;2023-04-15T06:58:08;4.80;;;1.93;;
18200;SDS011;9226;47.858;9.594;2023-04-15T07:00:33;3.63;;;1.63;;
18200;SDS011;9226;47.858;9.594;2023-04-15T07:02:59;2.43;;;1.47;;
18200;SDS011;9226;47.858;9.594;2023-04-15T07:05:27;3.00;;;1.73;;
18200;SDS011;9226;47.858;9.594;2023-04-15T07:07:53;2.90;;;1.67;;
18200;SDS011;9226;47.858;9.594;2023-04-15T07:10:19;3.33;;;1.63;;
18200;SDS011;9226;47.858;9.594;2023-04-15T07:12:44;2.20;;;1.57;;
18200;SDS011;9226;47.858;9.594;2023-04-15T07:15:10;4.97;;;1.33;;
18200;SDS011;9226;47.858;9.594;2023-04-15T07:17:36;3.27;;;1.50;;
18200;SDS011;9226;47.858;9.594;2023-04-15T07:20:01;3.23;;;1.50;;
18200;SDS011;9226;47.858;9.594;2023-04-15T07:22:29;5.80;;;1.40;;
18200;SDS011;9226;47.858;9.594;2023-04-15T07:24:54;3.93;;;1.80;;
18200;SDS011;9226;47.858;9.594;2023-04-15T07:27:19;5.00;;;1.90;;
18200;SDS011;9226;47.858;9.594;2023-04-15T07:29:45;6.57;;;1.97;;
18200;SDS011;9226;47.858;9.594;2023-04-15T07:32:10;6.53;;;2.00;;
18200;SDS011;9226;47.858;9.594;2023-04-15T07:34:36;3.97;;;2.10;;
18200;SDS011;9226;47.858;9.594;2023-04-15T07:37:02;4.10;;;1.90;;
18200;SDS011;9226;47.858;9.594;2023-04-15T07:39:27;3.27;;;1.80;;
18200;SDS011;9226;47.858;9.594;2023-04-15T07:41:53;3.03;;;1.57;;
18200;SDS011;9226;47.858;9.594;2023-04-15T07:44:19;6.47;;;1.87;;
18200;SDS011;9226;47.858;9.594;2023-04-15T07:46:44;3.17;;;1.73;;
18200;SDS011;9226;47.858;9.594;2023-04-15T07:49:10;5.13;;;2.00;;
18200;SDS011;9226;47.858;9.594;2023-04-15T07:51:36;4.70;;;2.10;;
18200;SDS011;9226;47.858;9.594;2023-04-15T07:54:02;6.13;;;2.27;;
18200;SDS011;9226;47.858;9.594;2023-04-15T07:56:28;10.17;;;2.70;;
18200;SDS011;9226;47.858;9.594;2023-04-15T07:58:53;5.13;;;2.30;;
18200;SDS011;9226;47.858;9.594;2023-04-15T08:01:18;14.37;;;2.60;;
18200;SDS011;9226;47.858;9.594;2023-04-15T08:03:44;7.97;;;3.10;;
18200;SDS011;9226;47.858;9.594;2023-04-15T08:06:09;5.13;;;2.30;;
18200;SDS011;9226;47.858;9.594;2023-04-15T08:08:35;5.37;;;2.90;;
18200;SDS011;9226;47.858;9.594;2023-04-15T08:11:00;11.83;;;3.83;;
18200;SDS011;9226;47.858;9.594;2023-04-15T08:13:26;17.47;;;4.30;;
18200;SDS011;9226;47.858;9.594;2023-04-15T08:18:38;5.53;;;2.40;;
18200;SDS011;9226;47.858;9.594;2023-04-15T08:21:04;4.13;;;2.70;;
18200;SDS011;9226;47.858;9.594;2023-04-15T08:23:30;8.60;;;3.03;;
18200;SDS011;9226;47.858;9.594;2023-04-15T08:25:56;8.30;;;2.70;;
18200;SDS011;9226;47.858;9.594;2023-04-15T08:28:22;15.00;;;3.30;;
18200;SDS011;9226;47.858;9.594;2023-04-15T08:30:47;19.33;;;3.80;;
18200;SDS011;9226;47.858;9.594;2023-04-15T08:33:13;4.83;;;2.50;;
18200;SDS011;9226;47.858;9.594;2023-04-15T08:35:38;5.50;;;2.60;;
18200;SDS011;9226;47.858;9.594;2023-04-15T08:38:03;10.40;;;2.97;;
18200;SDS011;9226;47.858;9.594;2023-04-15T08:40:31;9.43;;;3.30;;
18200;SDS011;9226;47.858;9.594;2023-04-15T08:43:04;12.47;;;2.87;;
18200;SDS011;9226;47.858;9.594;2023-04-15T08:45:33;5.37;;;2.40;;
18200;SDS011;9226;47.858;9.594;2023-04-15T08:47:59;15.23;;;3.20;;
18200;SDS011;9226;47.858;9.594;2023-04-15T08:50:28;4.13;;;2.57;;
18200;SDS011;9226;47.858;9.594;2023-04-15T08:52:57;7.27;;;2.77;;
18200;SDS011;9226;47.858;9.594;2023-04-15T08:55:24;5.07;;;2.80;;
18200;SDS011;9226;47.858;9.594;2023-04-15T08:57:53;5.90;;;2.57;;
18200;SDS011;9226;47.858;9.594;2023-04-15T09:00:20;4.27;;;2.40;;
18200;SDS011;9226;47.858;9.594;2023-04-15T09:02:47;6.57;;;2.67;;
18200;SDS011;9226;47.858;9.594;2023-04-15T09:05:12;15.90;;;3.07;;
18200;SDS011;9226;47.858;9.594;2023-04-15T09:07:38;26.17;;;3.80;;
18200;SDS011;9226;47.858;9.594;2023-04-15T09:10:03;13.43;;;3.27;;
18200;SDS011;9226;47.858;9.594;2023-04-15T09:12:29;4.50;;;3.03;;
18200;SDS011;9226;47.858;9.594;2023-04-15T09:14:55;5.43;;;2.80;;
18200;SDS011;9226;47.858;9.594;2023-04-15T09:17:21;5.63;;;2.50;;
18200;SDS011;9226;47.858;9.594;2023-04-15T09:19:48;4.80;;;2.60;;
18200;SDS011;9226;47.858;9.594;2023-04-15T09:22:17;3.73;;;2.30;;
18200;SDS011;9226;47.858;9.594;2023-04-15T09:24:45;5.87;;;2.60;;
18200;SDS011;9226;47.858;9.594;2023-04-15T09:27:11;5.37;;;2.40;;
18200;SDS011;9226;47.858;9.594;2023-04-15T09:29:40;6.00;;;2.53;;
18200;SDS011;9226;47.858;9.594;2023-04-15T09:32:13;5.77;;;2.70;;
18200;SDS011;9226;47.858;9.594;2023-04-15T09:34:39;5.07;;;2.00;;
18200;SDS011;9226;47.858;9.594;2023-04-15T09:37:04;6.47;;;2.60;;
18200;SDS011;9226;47.858;9.594;2023-04-15T09:42:12;3.63;;;2.30;;
18200;SDS011;9226;47.858;9.594;2023-04-15T09:44:37;5.33;;;2.17;;
18200;SDS011;9226;47.858;9.594;2023-04-15T09:47:02;5.03;;;2.30;;
18200;SDS011;9226;47.858;9.594;2023-04-15T09:49:28;5.20;;;2.00;;
18200;SDS011;9226;47.858;9.594;2023-04-15T09:51:57;3.77;;;2.00;;
18200;SDS011;9226;47.858;9.594;2023-04-15T09:54:24;9.13;;;2.67;;
18200;SDS011;9226;47.858;9.594;2023-04-15T09:57:03;5.80;;;2.00;;
18200;SDS011;9226;47.858;9.594;2023-04-15T09:59:30;3.23;;;1.63;;
18200;SDS011;9226;47.858;9.594;2023-04-15T10:01:55;11.17;;;3.80;;
18200;SDS011;9226;47.858;9.594;2023-04-15T10:04:21;5.17;;;2.63;;
18200;SDS011;9226;47.858;9.594;2023-04-15T10:06:47;3.93;;;2.27;;
18200;SDS011;9226;47.858;9.594;2023-04-15T10:09:13;3.27;;;1.90;;
18200;SDS011;9226;47.858;9.594;2023-04-15T10:11:38;4.47;;;2.20;;
18200;SDS011;9226;47.858;9.594;2023-04-15T10:14:04;5.17;;;2.07;;
18200;SDS011;9226;47.858;9.594;2023-04-15T10:16:31;3.40;;;2.03;;
18200;SDS011;9226;47.858;9.594;2023-04-15T10:19:00;2.83;;;1.90;;
18200;SDS011;9226;47.858;9.594;2023-04-15T10:21:26;4.90;;;1.93;;
18200;SDS011;9226;47.858;9.594;2023-04-15T10:23:52;7.50;;;2.33;;
18200;SDS011;9226;47.858;9.594;2023-04-15T10:26:18;5.03;;;2.30;;
18200;SDS011;9226;47.858;9.594;2023-04-15T10:28:44;6.67;;;2.00;;
18200;SDS011;9226;47.858;9.594;2023-04-15T10:31:13;3.57;;;2.10;;
18200;SDS011;9226;47.858;9.594;2023-04-15T10:33:39;4.13;;;2.30;;
18200;SDS011;9226;47.858;9.594;2023-04-15T10:36:06;5.13;;;2.20;;
18200;SDS011;9226;47.858;9.594;2023-04-15T10:38:39;5.80;;;3.27;;
18200;SDS011;9226;47.858;9.594;2023-04-15T10:43:39;5.33;;;2.00;;
18200;SDS011;9226;47.858;9.594;2023-04-15T10:46:12;4.03;;;2.23;;
18200;SDS011;9226;47.858;9.594;2023-04-15T10:48:37;4.60;;;2.27;;
18200;SDS011;9226;47.858;9.594;2023-04-15T10:51:02;4.77;;;2.53;;
18200;SDS011;9226;47.858;9.594;2023-04-15T10:53:29;5.97;;;2.80;;
18200;SDS011;9226;47.858;9.594;2023-04-15T10:55:56;5.03;;;2.30;;
18200;SDS011;9226;47.858;9.594;2023-04-15T10:58:22;8.33;;;2.17;;
18200;SDS011;9226;47.858;9.594;2023-04-15T11:00:50;3.70;;;2.10;;
18200;SDS011;9226;47.858;9.594;2023-04-15T11:03:32;9.37;;;2.00;;
18200;SDS011;9226;47.858;9.594;2023-04-15T11:06:02;3.40;;;2.00;;
18200;SDS011;9226;47.858;9.594;2023-04-15T11:11:20;5.80;;;2.10;;
18200;SDS011;9226;47.858;9.594;2023-04-15T11:13:49;8.53;;;2.20;;
18200;SDS011;9226;47.858;9.594;2023-04-15T11:16:16;3.93;;;2.10;;
18200;SDS011;9226;47.858;9.594;2023-04-15T11:18:42;4.60;;;1.97;;
18200;SDS011;9226;47.858;9.594;2023-04-15T11:21:18;2.60;;;1.67;;
18200;SDS011;9226;47.858;9.594;2023-04-15T11:23:44;6.63;;;1.97;;
18200;SDS011;9226;47.858;9.594;2023-04-15T11:26:11;5.07;;;2.00;;
18200;SDS011;9226;47.858;9.594;2023-04-15T11:28:38;3.30;;;1.80;;
18200;SDS011;9226;47.858;9.594;2023-04-15T11:31:05;4.67;;;1.90;;
18200;SDS011;9226;47.858;9.594;2023-04-15T11:33:34;5.93;;;1.70;;
18200;SDS011;9226;47.858;9.594;2023-04-15T11:36:00;4.43;;;1.73;;
18200;SDS011;9226;47.858;9.594;2023-04-15T11:38:25;6.50;;;1.90;;
18200;SDS011;9226;47.858;9.594;2023-04-15T11:40:51;4.70;;;1.50;;
18200;SDS011;9226;47.858;9.594;2023-04-15T11:43:21;4.60;;;1.70;;
18200;SDS011;9226;47.858;9.594;2023-04-15T11:45:48;2.97;;;1.43;;
18200;SDS011;9226;47.858;9.594;2023-04-15T11:48:17;3.00;;;1.70;;
18200;SDS011;9226;47.858;9.594;2023-04-15T11:50:43;4.57;;;1.90;;
18200;SDS011;9226;47.858;9.594;2023-04-15T11:53:10;1.83;;;1.47;;
18200;SDS011;9226;47.858;9.594;2023-04-15T11:55:47;5.50;;;1.60;;
18200;SDS011;9226;47.858;9.594;2023-04-15T11:58:15;2.83;;;1.57;;
18200;SDS011;9226;47.858;9.594;2023-04-15T12:00:45;3.80;;;1.57;;
18200;SDS011;9226;47.858;9.594;2023-04-15T12:03:24;5.73;;;1.60;;
18200;SDS011;9226;47.858;9.594;2023-04-15T12:11:14;7.33;;;1.60;;
18200;SDS011;9226;47.858;9.594;2023-04-15T12:13:43;5.57;;;1.60;;
18200;SDS011;9226;47.858;9.594;2023-04-15T12:16:10;3.93;;;1.50;;
18200;SDS011;9226;47.858;9.594;2023-04-15T12:18:36;5.13;;;1.30;;
18200;SDS011;9226;47.858;9.594;2023-04-15T12:21:09;4.97;;;1.40;;
18200;SDS011;9226;47.858;9.594;2023-04-15T12:23:39;4.40;;;1.67;;
18200;SDS011;9226;47.858;9.594;2023-04-15T12:26:12;3.37;;;1.50;;
18200;SDS011;9226;47.858;9.594;2023-04-15T12:28:39;6.73;;;1.90;;
18200;SDS011;9226;47.858;9.594;2023-04-15T12:31:06;4.00;;;1.50;;
18200;SDS011;9226;47.858;9.594;2023-04-15T12:33:34;4.03;;;1.60;;
18200;SDS011;9226;47.858;9.594;2023-04-15T12:35:59;4.87;;;1.60;;
18200;SDS011;9226;47.858;9.594;2023-04-15T12:38:25;7.17;;;1.80;;
18200;SDS011;9226;47.858;9.594;2023-04-15T12:40:50;4.37;;;1.57;;
18200;SDS011;9226;47.858;9.594;2023-04-15T12:43:15;5.10;;;1.87;;
18200;SDS011;9226;47.858;9.594;2023-04-15T12:45:41;7.27;;;2.20;;
18200;SDS011;9226;47.858;9.594;2023-04-15T12:48:06;7.93;;;1.70;;
18200;SDS011;9226;47.858;9.594;2023-04-15T12:50:33;7.23;;;2.13;;
18200;SDS011;9226;47.858;9.594;2023-04-15T12:52:59;8.23;;;2.00;;
18200;SDS011;9226;47.858;9.594;2023-04-15T12:55:25;6.67;;;1.63;;
18200;SDS011;9226;47.858;9.594;2023-04-15T12:57:50;5.10;;;1.93;;
18200;SDS011;9226;47.858;9.594;2023-04-15T13:00:16;3.87;;;1.70;;
18200;SDS011;9226;47.858;9.594;2023-04-15T13:02:45;5.53;;;1.60;;
18200;SDS011;9226;47.858;9.594;2023-04-15T13:05:10;4.10;;;1.50;;
18200;SDS011;9226;47.858;9.594;2023-04-15T13:07:38;4.07;;;1.60;;
18200;SDS011;9226;47.858;9.594;2023-04-15T13:10:04;5.07;;;1.97;;
18200;SDS011;9226;47.858;9.594;2023-04-15T13:12:30;6.80;;;1.93;;
18200;SDS011;9226;47.858;9.594;2023-04-15T13:14:56;2.73;;;1.60;;
18200;SDS011;9226;47.858;9.594;2023-04-15T13:17:22;4.47;;;1.63;;
18200;SDS011;9226;47.858;9.594;2023-04-15T13:19:47;8.03;;;1.60;;
18200;SDS011;9226;47.858;9.594;2023-04-15T13:22:13;5.17;;;1.50;;
18200;SDS011;9226;47.858;9.594;2023-04-15T13:24:39;4.17;;;1.60;;
18200;SDS011;9226;47.858;9.594;2023-04-15T13:27:04;3.50;;;1.33;;
18200;SDS011;9226;47.858;9.594;2023-04-15T13:29:31;3.50;;;1.67;;
18200;SDS011;9226;47.858;9.594;2023-04-15T13:31:57;5.97;;;1.97;;
18200;SDS011;9226;47.858;9.594;2023-04-15T13:34:22;5.00;;;1.67;;
18200;SDS011;9226;47.858;9.594;2023-04-15T13:36:48;4.87;;;1.27;;
18200;SDS011;9226;47.858;9.594;2023-04-15T13:39:13;5.27;;;1.70;;
18200;SDS011;9226;47.858;9.594;2023-04-15T13:41:39;3.10;;;1.43;;
18200;SDS011;9226;47.858;9.594;2023-04-15T13:44:04;8.10;;;1.77;;
18200;SDS011;9226;47.858;9.594;2023-04-15T13:46:30;5.27;;;1.90;;
18200;SDS011;9226;47.858;9.594;2023-04-15T13:48:55;3.87;;;1.90;;
18200;SDS011;9226;47.858;9.594;2023-04-15T13:51:20;3.00;;;1.67;;
18200;SDS011;9226;47.858;9.594;2023-04-15T13:53:46;7.67;;;1.87;;
18200;SDS011;9226;47.858;9.594;2023-04-15T13:56:11;4.17;;;1.97;;
18200;SDS011;9226;47.858;9.594;2023-04-15T13:58:37;4.83;;;1.90;;
18200;SDS011;9226;47.858;9.594;2023-04-15T14:01:02;3.43;;;1.60;;
18200;SDS011;9226;47.858;9.594;2023-04-15T14:03:29;5.13;;;1.77;;
18200;SDS011;9226;47.858;9.594;2023-04-15T14:05:54;4.47;;;1.67;;
18200;SDS011;9226;47.858;9.594;2023-04-15T14:08:21;5.63;;;2.03;;
18200;SDS011;9226;47.858;9.594;2023-04-15T14:10:46;4.53;;;1.67;;
18200;SDS011;9226;47.858;9.594;2023-04-15T14:13:15;4.20;;;1.63;;
18200;SDS011;9226;47.858;9.594;2023-04-15T14:15:40;3.20;;;1.50;;
18200;SDS011;9226;47.858;9.594;2023-04-15T14:18:06;6.73;;;1.60;;
18200;SDS011;9226;47.858;9.594;2023-04-15T14:20:32;4.40;;;1.73;;
18200;SDS011;9226;47.858;9.594;2023-04-15T14:22:57;3.53;;;1.37;;
18200;SDS011;9226;47.858;9.594;2023-04-15T14:25:22;3.63;;;1.70;;
18200;SDS011;9226;47.858;9.594;2023-04-15T14:27:48;3.77;;;1.63;;
18200;SDS011;9226;47.858;9.594;2023-04-15T14:30:14;4.93;;;1.83;;
18200;SDS011;9226;47.858;9.594;2023-04-15T14:32:39;3.57;;;1.67;;
18200;SDS011;9226;47.858;9.594;2023-04-15T14:35:05;2.20;;;1.40;;
18200;SDS011;9226;47.858;9.594;2023-04-15T14:37:31;7.30;;;2.00;;
18200;SDS011;9226;47.858;9.594;2023-04-15T14:39:56;2.47;;;1.60;;
18200;SDS011;9226;47.858;9.594;2023-04-15T14:42:22;3.83;;;1.90;;
18200;SDS011;9226;47.858;9.594;2023-04-15T14:44:47;3.63;;;1.50;;
18200;SDS011;9226;47.858;9.594;2023-04-15T14:47:12;2.60;;;1.40;;
18200;SDS011;9226;47.858;9.594;2023-04-15T14:49:38;3.60;;;1.60;;
18200;SDS011;9226;47.858;9.594;2023-04-15T14:52:04;4.83;;;1.70;;
18200;SDS011;9226;47.858;9.594;2023-04-15T14:54:30;5.70;;;1.80;;
18200;SDS011;9226;47.858;9.594;2023-04-15T14:56:55;7.00;;;2.33;;
18200;SDS011;9226;47.858;9.594;2023-04-15T14:59:21;6.77;;;2.27;;
18200;SDS011;9226;47.858;9.594;2023-04-15T15:01:46;5.03;;;1.97;;
18200;SDS011;9226;47.858;9.594;2023-04-15T15:04:12;6.73;;;2.30;;
18200;SDS011;9226;47.858;9.594;2023-04-15T15:06:38;4.30;;;2.43;;
18200;SDS011;9226;47.858;9.594;2023-04-15T15:09:04;3.73;;;1.90;;
18200;SDS011;9226;47.858;9.594;2023-04-15T15:11:29;7.27;;;2.07;;